sensor_id;sensor_type;location;lat;lon;timestamp;pressure;altitude;pressure_sealevel;temperature
61703;BMP280;47622;47.726;3.298;2023-10-19T00:01:22;97281.97;;;16.03
61703;BMP280;47622;47.726;3.298;2023-10-19T00:03:52;97278.97;;;16.01
61703;BMP280;47622;47.726;3.298;2023-10-19T00:06:21;97295.59;;;15.98
61703;BMP280;47622;47.726;3.298;2023-10-19T00:08:49;97277.44;;;16.03
61703;BMP280;47622;47.726;3.298;2023-10-19T00:11:17;97281.97;;;16.03
61703;BMP280;47622;47.726;3.298;2023-10-19T00:13:52;97284.25;;;16.01
61703;BMP280;47622;47.726;3.298;2023-10-19T00:16:20;97281.22;;;15.99
61703;BMP280;47622;47.726;3.298;2023-10-19T00:18:51;97281.97;;;16.03
61703;BMP280;47622;47.726;3.298;2023-10-19T00:21:18;97270.66;;;16.02
61703;BMP280;47622;47.726;3.298;2023-10-19T00:23:52;97271.41;;;16.03
61703;BMP280;47622;47.726;3.298;2023-10-19T00:26:22;97269.09;;;16.05
61703;BMP280;47622;47.726;3.298;2023-10-19T00:28:51;97253.22;;;16.19
61703;BMP280;47622;47.726;3.298;2023-10-19T00:31:27;97255.47;;;16.17
61703;BMP280;47622;47.726;3.298;2023-10-19T00:33:53;97253.94;;;16.16
61703;BMP280;47622;47.726;3.298;2023-10-19T00:36:20;97250.97;;;16.14
61703;BMP280;47622;47.726;3.298;2023-10-19T00:38:46;97255.16;;;16.08
61703;BMP280;47622;47.726;3.298;2023-10-19T00:41:17;97259.28;;;16.09
61703;BMP280;47622;47.726;3.298;2023-10-19T00:43:57;97252.91;;;16.03
61703;BMP280;47622;47.726;3.298;2023-10-19T00:46:28;97255.16;;;16.08
61703;BMP280;47622;47.726;3.298;2023-10-19T00:49:10;97247.94;;;16.12
61703;BMP280;47622;47.726;3.298;2023-10-19T00:51:38;97243.38;;;16.23
61703;BMP280;47622;47.726;3.298;2023-10-19T00:54:42;97237.38;;;16.12
61703;BMP280;47622;47.726;3.298;2023-10-19T00:57:17;97226.78;;;16.19
61703;BMP280;47622;47.726;3.298;2023-10-19T00:59:47;97229.78;;;16.17
61703;BMP280;47622;47.726;3.298;2023-10-19T01:02:16;97223.03;;;16.13
61703;BMP280;47622;47.726;3.298;2023-10-19T01:04:52;97220.72;;;16.15
61703;BMP280;47622;47.726;3.298;2023-10-19T01:07:27;97216.94;;;16.16
61703;BMP280;47622;47.726;3.298;2023-10-19T01:09:58;97207.94;;;16.06
61703;BMP280;47622;47.726;3.298;2023-10-19T01:12:25;97205.72;;;15.98
61703;BMP280;47622;47.726;3.298;2023-10-19T01:15:10;97205.75;;;15.90
61703;BMP280;47622;47.726;3.298;2023-10-19T01:17:40;97195.97;;;15.80
61703;BMP280;47622;47.726;3.298;2023-10-19T01:22:53;97193.72;;;15.68
61703;BMP280;47622;47.726;3.298;2023-10-19T01:25:31;97180.94;;;15.49
61703;BMP280;47622;47.726;3.298;2023-10-19T01:28:06;97174.91;;;15.45
61703;BMP280;47622;47.726;3.298;2023-10-19T01:30:37;97163.63;;;15.34
61703;BMP280;47622;47.726;3.298;2023-10-19T01:33:04;97156.47;;;15.23
61703;BMP280;47622;47.726;3.298;2023-10-19T01:35:33;97150.09;;;15.14
61703;BMP280;47622;47.726;3.298;2023-10-19T01:38:22;97153.84;;;15.09
61703;BMP280;47622;47.726;3.298;2023-10-19T01:40:48;97157.28;;;15.03
61703;BMP280;47622;47.726;3.298;2023-10-19T01:43:14;97161.78;;;14.98
61703;BMP280;47622;47.726;3.298;2023-10-19T01:45:47;97159.16;;;14.88
61703;BMP280;47622;47.726;3.298;2023-10-19T01:48:13;97152.38;;;14.80
61703;BMP280;47622;47.726;3.298;2023-10-19T01:50:41;97150.09;;;14.82
61703;BMP280;47622;47.726;3.298;2023-10-19T01:53:07;97141.44;;;14.78
61703;BMP280;47622;47.726;3.298;2023-10-19T01:55:44;97140.31;;;14.72
61703;BMP280;47622;47.726;3.298;2023-10-19T01:58:10;97137.28;;;14.70
61703;BMP280;47622;47.726;3.298;2023-10-19T02:00:36;97123.75;;;14.68
61703;BMP280;47622;47.726;3.298;2023-10-19T02:03:08;97108.28;;;14.62
61703;BMP280;47622;47.726;3.298;2023-10-19T02:05:34;97098.88;;;14.61
61703;BMP280;47622;47.726;3.298;2023-10-19T02:08:07;97088.31;;;14.72
61703;BMP280;47622;47.726;3.298;2023-10-19T02:10:34;97087.56;;;14.72
61703;BMP280;47622;47.726;3.298;2023-10-19T02:13:01;97086.03;;;14.71
61703;BMP280;47622;47.726;3.298;2023-10-19T02:15:33;97092.06;;;14.57
61703;BMP280;47622;47.726;3.298;2023-10-19T02:18:01;97091.34;;;14.49
61703;BMP280;47622;47.726;3.298;2023-10-19T02:20:28;97089.44;;;14.43
61703;BMP280;47622;47.726;3.298;2023-10-19T02:22:56;97087.94;;;14.52
61703;BMP280;47622;47.726;3.298;2023-10-19T02:25:24;97083.03;;;14.47
61703;BMP280;47622;47.726;3.298;2023-10-19T02:28:01;97083.78;;;14.55
61703;BMP280;47622;47.726;3.298;2023-10-19T02:30:28;97072.50;;;14.54
61703;BMP280;47622;47.726;3.298;2023-10-19T02:32:53;97079.63;;;14.50
61703;BMP280;47622;47.726;3.298;2023-10-19T02:35:19;97086.03;;;14.56
61703;BMP280;47622;47.726;3.298;2023-10-19T02:37:45;97085.31;;;14.63
61703;BMP280;47622;47.726;3.298;2023-10-19T02:40:11;97087.19;;;14.59
61703;BMP280;47622;47.726;3.298;2023-10-19T02:42:47;97076.25;;;14.60
61703;BMP280;47622;47.726;3.298;2023-10-19T02:45:14;97061.94;;;14.54
61703;BMP280;47622;47.726;3.298;2023-10-19T02:47:43;97068.34;;;14.53
61703;BMP280;47622;47.726;3.298;2023-10-19T02:50:09;97076.63;;;14.55
61703;BMP280;47622;47.726;3.298;2023-10-19T02:52:38;97063.44;;;14.55
61703;BMP280;47622;47.726;3.298;2023-10-19T02:55:07;97073.22;;;14.51
61703;BMP280;47622;47.726;3.298;2023-10-19T02:57:33;97067.94;;;14.51
61703;BMP280;47622;47.726;3.298;2023-10-19T02:59:58;97068.72;;;14.55
61703;BMP280;47622;47.726;3.298;2023-10-19T03:02:25;97053.66;;;14.59
61703;BMP280;47622;47.726;3.298;2023-10-19T03:04:54;97054.41;;;14.63
61703;BMP280;47622;47.726;3.298;2023-10-19T03:07:20;97061.16;;;14.72
61703;BMP280;47622;47.726;3.298;2023-10-19T03:09:45;97066.44;;;14.75
61703;BMP280;47622;47.726;3.298;2023-10-19T03:12:14;97057.81;;;14.68
61703;BMP280;47622;47.726;3.298;2023-10-19T03:14:40;97048.72;;;14.83
61703;BMP280;47622;47.726;3.298;2023-10-19T03:17:12;97043.81;;;14.78
61703;BMP280;47622;47.726;3.298;2023-10-19T03:19:38;97037.06;;;14.84
61703;BMP280;47622;47.726;3.298;2023-10-19T03:22:04;97031.78;;;14.77
61703;BMP280;47622;47.726;3.298;2023-10-19T03:24:32;97036.31;;;14.80
61703;BMP280;47622;47.726;3.298;2023-10-19T03:27:12;97039.34;;;14.78
61703;BMP280;47622;47.726;3.298;2023-10-19T03:29:42;97036.31;;;14.73
61703;BMP280;47622;47.726;3.298;2023-10-19T03:32:12;97021.97;;;14.81
61703;BMP280;47622;47.726;3.298;2023-10-19T03:34:38;97028.75;;;14.82
61703;BMP280;47622;47.726;3.298;2023-10-19T03:37:04;97034.75;;;14.86
61703;BMP280;47622;47.726;3.298;2023-10-19T03:39:34;97023.47;;;14.82
61703;BMP280;47622;47.726;3.298;2023-10-19T03:42:04;97012.16;;;14.78
61703;BMP280;47622;47.726;3.298;2023-10-19T03:44:32;97008.03;;;14.77
61703;BMP280;47622;47.726;3.298;2023-10-19T03:47:13;97006.50;;;14.83
61703;BMP280;47622;47.726;3.298;2023-10-19T03:49:40;97011.03;;;14.82
61703;BMP280;47622;47.726;3.298;2023-10-19T03:52:06;97003.50;;;14.81
61703;BMP280;47622;47.726;3.298;2023-10-19T03:54:35;96999.38;;;14.80
61703;BMP280;47622;47.726;3.298;2023-10-19T03:57:08;96997.88;;;14.79
61703;BMP280;47622;47.726;3.298;2023-10-19T03:59:40;96991.44;;;14.76
61703;BMP280;47622;47.726;3.298;2023-10-19T04:02:09;96984.28;;;14.77
61703;BMP280;47622;47.726;3.298;2023-10-19T04:04:38;96973.34;;;14.85
61703;BMP280;47622;47.726;3.298;2023-10-19T04:07:05;96968.81;;;14.86
61703;BMP280;47622;47.726;3.298;2023-10-19T04:09:37;96965.44;;;14.82
61703;BMP280;47622;47.726;3.298;2023-10-19T04:12:23;96973.00;;;14.80
61703;BMP280;47622;47.726;3.298;2023-10-19T04:14:48;96960.53;;;14.77
61703;BMP280;47622;47.726;3.298;2023-10-19T04:17:14;96956.75;;;14.81
61703;BMP280;47622;47.726;3.298;2023-10-19T04:19:39;96946.22;;;14.85
61703;BMP280;47622;47.726;3.298;2023-10-19T04:22:05;96950.72;;;14.88
61703;BMP280;47622;47.726;3.298;2023-10-19T04:24:30;96938.22;;;14.99
61703;BMP280;47622;47.726;3.298;2023-10-19T04:26:58;96933.72;;;14.92
61703;BMP280;47622;47.726;3.298;2023-10-19T04:29:24;96930.75;;;14.83
61703;BMP280;47622;47.726;3.298;2023-10-19T04:31:53;96933.03;;;14.78
61703;BMP280;47622;47.726;3.298;2023-10-19T04:34:22;96921.78;;;14.74
61703;BMP280;47622;47.726;3.298;2023-10-19T04:36:49;96923.25;;;14.75
61703;BMP280;47622;47.726;3.298;2023-10-19T04:39:14;96917.59;;;14.73
61703;BMP280;47622;47.726;3.298;2023-10-19T04:41:41;96902.91;;;14.72
61703;BMP280;47622;47.726;3.298;2023-10-19T04:44:07;96920.25;;;14.80
61703;BMP280;47622;47.726;3.298;2023-10-19T04:46:33;96920.25;;;14.80
61703;BMP280;47622;47.726;3.298;2023-10-19T04:48:59;96919.44;;;14.83
61703;BMP280;47622;47.726;3.298;2023-10-19T04:51:25;96931.94;;;14.79
61703;BMP280;47622;47.726;3.298;2023-10-19T04:53:50;96924.34;;;14.81
61703;BMP280;47622;47.726;3.298;2023-10-19T04:56:16;96923.22;;;14.89
61703;BMP280;47622;47.726;3.298;2023-10-19T04:58:42;96910.72;;;14.93
61703;BMP280;47622;47.726;3.298;2023-10-19T05:01:07;96915.66;;;14.94
61703;BMP280;47622;47.726;3.298;2023-10-19T05:03:33;96905.50;;;14.89
61703;BMP280;47622;47.726;3.298;2023-10-19T05:05:59;96896.03;;;14.92
61703;BMP280;47622;47.726;3.298;2023-10-19T05:08:26;96899.81;;;14.87
61703;BMP280;47622;47.726;3.298;2023-10-19T05:10:54;96890.75;;;14.92
61703;BMP280;47622;47.726;3.298;2023-10-19T05:13:23;96879.47;;;14.88
61703;BMP280;47622;47.726;3.298;2023-10-19T05:15:51;96877.19;;;14.97
61703;BMP280;47622;47.726;3.298;2023-10-19T05:18:18;96875.28;;;14.97
61703;BMP280;47622;47.726;3.298;2023-10-19T05:20:45;96862.47;;;14.92
61703;BMP280;47622;47.726;3.298;2023-10-19T05:23:11;96868.53;;;14.96
61703;BMP280;47622;47.726;3.298;2023-10-19T05:25:39;96850.84;;;14.90
61703;BMP280;47622;47.726;3.298;2023-10-19T05:28:05;96854.56;;;14.96
61703;BMP280;47622;47.726;3.298;2023-10-19T05:30:35;96841.72;;;14.98
61703;BMP280;47622;47.726;3.298;2023-10-19T05:33:01;96831.16;;;15.02
61703;BMP280;47622;47.726;3.298;2023-10-19T05:35:28;96827.44;;;14.95
61703;BMP280;47622;47.726;3.298;2023-10-19T05:37:55;96822.16;;;14.95
61703;BMP280;47622;47.726;3.298;2023-10-19T05:40:24;96818.38;;;14.93
61703;BMP280;47622;47.726;3.298;2023-10-19T05:42:57;96810.09;;;14.94
61703;BMP280;47622;47.726;3.298;2023-10-19T05:45:24;96816.88;;;14.92
61703;BMP280;47622;47.726;3.298;2023-10-19T05:47:50;96806.69;;;14.94
61703;BMP280;47622;47.726;3.298;2023-10-19T05:50:15;96796.56;;;14.89
61703;BMP280;47622;47.726;3.298;2023-10-19T05:52:42;96796.56;;;14.89
61703;BMP280;47622;47.726;3.298;2023-10-19T05:55:11;96801.88;;;14.85
61703;BMP280;47622;47.726;3.298;2023-10-19T05:57:37;96803.00;;;14.84
61703;BMP280;47622;47.726;3.298;2023-10-19T06:00:11;96804.09;;;14.87
61703;BMP280;47622;47.726;3.298;2023-10-19T06:02:45;96793.47;;;15.01
61703;BMP280;47622;47.726;3.298;2023-10-19T06:05:13;96816.81;;;14.99
61703;BMP280;47622;47.726;3.298;2023-10-19T06:07:41;96827.44;;;14.95
61703;BMP280;47622;47.726;3.298;2023-10-19T06:10:07;96824.00;;;15.02
61703;BMP280;47622;47.726;3.298;2023-10-19T06:12:33;96823.59;;;15.04
61703;BMP280;47622;47.726;3.298;2023-10-19T06:15:00;96825.81;;;15.12
61703;BMP280;47622;47.726;3.298;2023-10-19T06:17:26;96831.09;;;15.12
61703;BMP280;47622;47.726;3.298;2023-10-19T06:19:54;96841.59;;;15.19
61703;BMP280;47622;47.726;3.298;2023-10-19T06:22:19;96863.50;;;15.13
61703;BMP280;47622;47.726;3.298;2023-10-19T06:24:45;96910.31;;;15.05
61703;BMP280;47622;47.726;3.298;2023-10-19T06:27:10;96927.66;;;15.06
61703;BMP280;47622;47.726;3.298;2023-10-19T06:29:36;96946.47;;;15.12
61703;BMP280;47622;47.726;3.298;2023-10-19T06:32:01;96938.88;;;15.24
61703;BMP280;47622;47.726;3.298;2023-10-19T06:34:28;96906.50;;;15.13
61703;BMP280;47622;47.726;3.298;2023-10-19T06:36:53;96908.78;;;15.11
61703;BMP280;47622;47.726;3.298;2023-10-19T06:39:20;96899.34;;;15.10
61703;BMP280;47622;47.726;3.298;2023-10-19T06:41:47;96883.94;;;15.05
61703;BMP280;47622;47.726;3.298;2023-10-19T06:44:13;96860.88;;;15.09
61703;BMP280;47622;47.726;3.298;2023-10-19T06:46:40;96854.50;;;15.03
61703;BMP280;47622;47.726;3.298;2023-10-19T06:49:06;96860.94;;;14.98
61703;BMP280;47622;47.726;3.298;2023-10-19T06:51:33;96859.78;;;15.03
61703;BMP280;47622;47.726;3.298;2023-10-19T06:53:58;96865.81;;;15.07
61703;BMP280;47622;47.726;3.298;2023-10-19T06:56:24;96869.53;;;15.10
61703;BMP280;47622;47.726;3.298;2023-10-19T06:58:49;96871.09;;;15.07
61703;BMP280;47622;47.726;3.298;2023-10-19T07:01:15;96875.59;;;15.03
61703;BMP280;47622;47.726;3.298;2023-10-19T07:03:43;96877.09;;;15.11
61703;BMP280;47622;47.726;3.298;2023-10-19T07:06:09;96867.72;;;15.07
61703;BMP280;47622;47.726;3.298;2023-10-19T07:08:39;96868.78;;;15.09
61703;BMP280;47622;47.726;3.298;2023-10-19T07:11:06;96869.59;;;15.06
61703;BMP280;47622;47.726;3.298;2023-10-19T07:13:33;96883.19;;;15.01
61703;BMP280;47622;47.726;3.298;2023-10-19T07:15:59;96882.06;;;15.02
61703;BMP280;47622;47.726;3.298;2023-10-19T07:18:24;96895.25;;;15.02
61703;BMP280;47622;47.726;3.298;2023-10-19T07:20:50;96901.28;;;14.99
61703;BMP280;47622;47.726;3.298;2023-10-19T07:23:17;96908.78;;;15.04
61703;BMP280;47622;47.726;3.298;2023-10-19T07:25:52;96888.44;;;15.08
61703;BMP280;47622;47.726;3.298;2023-10-19T07:28:20;96882.41;;;15.08
61703;BMP280;47622;47.726;3.298;2023-10-19T07:30:47;96897.06;;;15.12
61703;BMP280;47622;47.726;3.298;2023-10-19T07:33:14;96882.38;;;15.04
61703;BMP280;47622;47.726;3.298;2023-10-19T07:35:46;96874.81;;;15.13
61703;BMP280;47622;47.726;3.298;2023-10-19T07:38:15;96855.53;;;15.23
61703;BMP280;47622;47.726;3.298;2023-10-19T07:40:43;96858.16;;;15.27
61703;BMP280;47622;47.726;3.298;2023-10-19T07:43:09;96848.59;;;15.44
61703;BMP280;47622;47.726;3.298;2023-10-19T07:45:35;96855.31;;;15.52
61703;BMP280;47622;47.726;3.298;2023-10-19T07:48:03;96861.69;;;15.58
61703;BMP280;47622;47.726;3.298;2023-10-19T07:50:38;96848.44;;;15.65
61703;BMP280;47622;47.726;3.298;2023-10-19T07:53:06;96839.69;;;15.68
61703;BMP280;47622;47.726;3.298;2023-10-19T07:55:32;96841.22;;;15.69
61703;BMP280;47622;47.726;3.298;2023-10-19T07:57:58;96850.22;;;15.75
61703;BMP280;47622;47.726;3.298;2023-10-19T08:00:27;96853.84;;;15.92
61703;BMP280;47622;47.726;3.298;2023-10-19T08:02:55;96856.03;;;16.01
61703;BMP280;47622;47.726;3.298;2023-10-19T08:05:21;96860.44;;;16.11
61703;BMP280;47622;47.726;3.298;2023-10-19T08:07:47;96857.09;;;16.07
61703;BMP280;47622;47.726;3.298;2023-10-19T08:10:15;96853.31;;;16.04
61703;BMP280;47622;47.726;3.298;2023-10-19T08:12:42;96857.34;;;16.16
61703;BMP280;47622;47.726;3.298;2023-10-19T08:15:09;96840.28;;;16.24
61703;BMP280;47622;47.726;3.298;2023-10-19T08:17:44;96845.84;;;16.33
61703;BMP280;47622;47.726;3.298;2023-10-19T08:20:12;96833.66;;;16.43
61703;BMP280;47622;47.726;3.298;2023-10-19T08:22:56;96839.47;;;16.57
61703;BMP280;47622;47.726;3.298;2023-10-19T08:25:23;96840.50;;;16.94
61703;BMP280;47622;47.726;3.298;2023-10-19T08:27:49;96844.47;;;17.33
61703;BMP280;47622;47.726;3.298;2023-10-19T08:30:18;96845.59;;;17.78
61703;BMP280;47622;47.726;3.298;2023-10-19T08:32:45;96838.28;;;18.06
61703;BMP280;47622;47.726;3.298;2023-10-19T08:35:17;96847.19;;;18.35
61703;BMP280;47622;47.726;3.298;2023-10-19T08:37:55;96853.81;;;18.43
61703;BMP280;47622;47.726;3.298;2023-10-19T08:40:25;96849.53;;;18.49
61703;BMP280;47622;47.726;3.298;2023-10-19T08:42:52;96844.00;;;18.24
61703;BMP280;47622;47.726;3.298;2023-10-19T08:45:19;96840.81;;;18.13
61703;BMP280;47622;47.726;3.298;2023-10-19T08:47:55;96835.69;;;17.82
61703;BMP280;47622;47.726;3.298;2023-10-19T08:50:31;96835.59;;;17.66
61703;BMP280;47622;47.726;3.298;2023-10-19T08:53:02;96827.09;;;17.55
61703;BMP280;47622;47.726;3.298;2023-10-19T08:55:31;96816.53;;;17.51
61703;BMP280;47622;47.726;3.298;2023-10-19T08:58:00;96809.19;;;17.59
61703;BMP280;47622;47.726;3.298;2023-10-19T09:00:26;96807.69;;;18.01
61703;BMP280;47622;47.726;3.298;2023-10-19T09:02:55;96802.13;;;18.84
61703;BMP280;47622;47.726;3.298;2023-10-19T09:05:22;96806.41;;;19.72
61703;BMP280;47622;47.726;3.298;2023-10-19T09:07:52;96799.38;;;20.45
61703;BMP280;47622;47.726;3.298;2023-10-19T09:10:25;96795.88;;;21.29
61703;BMP280;47622;47.726;3.298;2023-10-19T09:13:06;96796.84;;;22.10
61703;BMP280;47622;47.726;3.298;2023-10-19T09:15:39;96795.69;;;22.69
61703;BMP280;47622;47.726;3.298;2023-10-19T09:18:18;96800.13;;;23.45
61703;BMP280;47622;47.726;3.298;2023-10-19T09:20:49;96785.81;;;24.42
61703;BMP280;47622;47.726;3.298;2023-10-19T09:23:20;96788.16;;;25.41
61703;BMP280;47622;47.726;3.298;2023-10-19T09:25:50;96791.84;;;26.42
61703;BMP280;47622;47.726;3.298;2023-10-19T09:28:18;96782.81;;;26.66
61703;BMP280;47622;47.726;3.298;2023-10-19T09:30:44;96777.97;;;26.70
61703;BMP280;47622;47.726;3.298;2023-10-19T09:33:10;96778.72;;;26.96
61703;BMP280;47622;47.726;3.298;2023-10-19T09:35:40;96769.66;;;26.94
61703;BMP280;47622;47.726;3.298;2023-10-19T09:38:09;96770.69;;;27.02
61703;BMP280;47622;47.726;3.298;2023-10-19T09:40:34;96764.69;;;27.81
61703;BMP280;47622;47.726;3.298;2023-10-19T09:43:04;96772.81;;;27.86
61703;BMP280;47622;47.726;3.298;2023-10-19T09:45:37;96775.31;;;28.60
61703;BMP280;47622;47.726;3.298;2023-10-19T09:48:07;96779.31;;;28.11
61703;BMP280;47622;47.726;3.298;2023-10-19T09:50:34;96779.22;;;28.48
61703;BMP280;47622;47.726;3.298;2023-10-19T09:53:01;96780.28;;;28.78
61703;BMP280;47622;47.726;3.298;2023-10-19T09:55:38;96772.94;;;28.79
61703;BMP280;47622;47.726;3.298;2023-10-19T09:58:20;96760.66;;;28.84
61703;BMP280;47622;47.726;3.298;2023-10-19T10:00:48;96767.06;;;28.97
61703;BMP280;47622;47.726;3.298;2023-10-19T10:03:55;96767.06;;;29.47
61703;BMP280;47622;47.726;3.298;2023-10-19T10:06:29;96759.94;;;29.44
61703;BMP280;47622;47.726;3.298;2023-10-19T10:08:55;96750.84;;;28.81
61703;BMP280;47622;47.726;3.298;2023-10-19T10:11:26;96756.75;;;28.85
61703;BMP280;47622;47.726;3.298;2023-10-19T10:13:52;96759.91;;;28.02
61703;BMP280;47622;47.726;3.298;2023-10-19T10:16:28;96755.97;;;27.97
61703;BMP280;47622;47.726;3.298;2023-10-19T10:19:00;96752.00;;;27.92
61703;BMP280;47622;47.726;3.298;2023-10-19T10:21:27;96756.72;;;28.03
61703;BMP280;47622;47.726;3.298;2023-10-19T10:23:59;96737.97;;;28.20
61703;BMP280;47622;47.726;3.298;2023-10-19T10:26:27;96731.53;;;28.12
61703;BMP280;47622;47.726;3.298;2023-10-19T10:29:21;96739.50;;;28.54
61703;BMP280;47622;47.726;3.298;2023-10-19T10:31:50;96727.72;;;28.35
61703;BMP280;47622;47.726;3.298;2023-10-19T10:37:01;96712.31;;;28.47
61703;BMP280;47622;47.726;3.298;2023-10-19T10:39:31;96724.97;;;27.70
61703;BMP280;47622;47.726;3.298;2023-10-19T10:41:58;96715.97;;;27.84
61703;BMP280;47622;47.726;3.298;2023-10-19T10:44:43;96712.16;;;28.08
61703;BMP280;47622;47.726;3.298;2023-10-19T10:47:16;96711.09;;;28.53
61703;BMP280;47622;47.726;3.298;2023-10-19T10:50:08;96707.13;;;28.43
61703;BMP280;47622;47.726;3.298;2023-10-19T10:52:36;96703.88;;;27.63
61703;BMP280;47622;47.726;3.298;2023-10-19T10:55:08;96704.88;;;27.71
61703;BMP280;47622;47.726;3.298;2023-10-19T10:57:38;96694.84;;;28.20
61703;BMP280;47622;47.726;3.298;2023-10-19T11:02:36;96691.47;;;28.58
61703;BMP280;47622;47.726;3.298;2023-10-19T11:05:02;96690.97;;;28.54
61703;BMP280;47622;47.726;3.298;2023-10-19T11:07:28;96697.56;;;28.48
61703;BMP280;47622;47.726;3.298;2023-10-19T11:09:55;96696.16;;;27.87
61703;BMP280;47622;47.726;3.298;2023-10-19T11:12:20;96678.72;;;27.72
61703;BMP280;47622;47.726;3.298;2023-10-19T11:14:56;96687.06;;;27.05
61703;BMP280;47622;47.726;3.298;2023-10-19T11:17:26;96683.19;;;26.29
61703;BMP280;47622;47.726;3.298;2023-10-19T11:19:58;96675.44;;;25.41
61703;BMP280;47622;47.726;3.298;2023-10-19T11:22:25;96677.22;;;24.85
61703;BMP280;47622;47.726;3.298;2023-10-19T11:24:52;96680.66;;;24.47
61703;BMP280;47622;47.726;3.298;2023-10-19T11:27:28;96669.13;;;23.93
61703;BMP280;47622;47.726;3.298;2023-10-19T11:29:56;96661.84;;;23.70
61703;BMP280;47622;47.726;3.298;2023-10-19T11:32:22;96659.81;;;23.46
61703;BMP280;47622;47.726;3.298;2023-10-19T11:34:59;96651.97;;;22.83
61703;BMP280;47622;47.726;3.298;2023-10-19T11:37:26;96649.31;;;22.37
61703;BMP280;47622;47.726;3.298;2023-10-19T11:39:52;96643.91;;;22.00
61703;BMP280;47622;47.726;3.298;2023-10-19T11:42:18;96647.41;;;21.88
61703;BMP280;47622;47.726;3.298;2023-10-19T11:44:44;96643.84;;;21.82
61703;BMP280;47622;47.726;3.298;2023-10-19T11:47:10;96633.66;;;21.90
61703;BMP280;47622;47.726;3.298;2023-10-19T11:49:36;96618.75;;;22.11
61703;BMP280;47622;47.726;3.298;2023-10-19T11:52:05;96614.59;;;22.37
61703;BMP280;47622;47.726;3.298;2023-10-19T11:54:33;96609.81;;;22.96
61703;BMP280;47622;47.726;3.298;2023-10-19T11:56:59;96604.72;;;22.98
61703;BMP280;47622;47.726;3.298;2023-10-19T11:59:24;96596.09;;;23.03
61703;BMP280;47622;47.726;3.298;2023-10-19T12:01:52;96589.28;;;22.93
61703;BMP280;47622;47.726;3.298;2023-10-19T12:04:20;96574.78;;;22.85
61703;BMP280;47622;47.726;3.298;2023-10-19T12:06:45;96576.88;;;22.62
61703;BMP280;47622;47.726;3.298;2023-10-19T12:09:13;96571.00;;;23.00
61703;BMP280;47622;47.726;3.298;2023-10-19T12:11:43;96580.75;;;23.55
61703;BMP280;47622;47.726;3.298;2023-10-19T12:14:09;96590.47;;;23.43
61703;BMP280;47622;47.726;3.298;2023-10-19T12:16:40;96579.72;;;23.10
61703;BMP280;47622;47.726;3.298;2023-10-19T12:19:06;96570.44;;;22.87
61703;BMP280;47622;47.726;3.298;2023-10-19T12:21:35;96573.34;;;22.65
61703;BMP280;47622;47.726;3.298;2023-10-19T12:24:03;96575.41;;;22.52
61703;BMP280;47622;47.726;3.298;2023-10-19T12:26:30;96573.97;;;22.42
61703;BMP280;47622;47.726;3.298;2023-10-19T12:28:55;96567.41;;;22.43
61703;BMP280;47622;47.726;3.298;2023-10-19T12:31:21;96568.25;;;22.67
61703;BMP280;47622;47.726;3.298;2023-10-19T12:33:48;96564.72;;;22.43
61703;BMP280;47622;47.726;3.298;2023-10-19T12:36:14;96562.81;;;22.34
61703;BMP280;47622;47.726;3.298;2023-10-19T12:38:45;96559.97;;;22.56
61703;BMP280;47622;47.726;3.298;2023-10-19T12:41:11;96560.88;;;22.53
61703;BMP280;47622;47.726;3.298;2023-10-19T12:43:36;96558.50;;;22.28
61703;BMP280;47622;47.726;3.298;2023-10-19T12:46:02;96562.97;;;22.22
61703;BMP280;47622;47.726;3.298;2023-10-19T12:48:27;96559.38;;;21.97
61703;BMP280;47622;47.726;3.298;2023-10-19T12:50:59;96549.84;;;21.69
61703;BMP280;47622;47.726;3.298;2023-10-19T12:53:24;96539.19;;;21.60
61703;BMP280;47622;47.726;3.298;2023-10-19T12:55:50;96539.81;;;21.33
61703;BMP280;47622;47.726;3.298;2023-10-19T12:58:17;96531.81;;;21.24
61703;BMP280;47622;47.726;3.298;2023-10-19T13:00:45;96533.66;;;21.05
61703;BMP280;47622;47.726;3.298;2023-10-19T13:03:13;96519.38;;;20.90
61703;BMP280;47622;47.726;3.298;2023-10-19T13:05:42;96513.53;;;20.73
61703;BMP280;47622;47.726;3.298;2023-10-19T13:08:13;96499.84;;;20.40
61703;BMP280;47622;47.726;3.298;2023-10-19T13:10:39;96486.47;;;20.31
61703;BMP280;47622;47.726;3.298;2023-10-19T13:13:08;96490.16;;;20.34
61703;BMP280;47622;47.726;3.298;2023-10-19T13:15:37;96483.47;;;20.29
61703;BMP280;47622;47.726;3.298;2023-10-19T13:18:04;96473.91;;;20.10
61703;BMP280;47622;47.726;3.298;2023-10-19T13:20:39;96476.69;;;20.06
61703;BMP280;47622;47.726;3.298;2023-10-19T13:23:08;96479.16;;;20.01
61703;BMP280;47622;47.726;3.298;2023-10-19T13:25:37;96477.22;;;20.01
61703;BMP280;47622;47.726;3.298;2023-10-19T13:28:16;96471.16;;;20.01
61703;BMP280;47622;47.726;3.298;2023-10-19T13:30:47;96470.78;;;19.77
61703;BMP280;47622;47.726;3.298;2023-10-19T13:33:13;96466.16;;;19.68
61703;BMP280;47622;47.726;3.298;2023-10-19T13:35:43;96455.88;;;19.45
61703;BMP280;47622;47.726;3.298;2023-10-19T13:38:10;96448.47;;;19.40
61703;BMP280;47622;47.726;3.298;2023-10-19T13:40:37;96443.75;;;19.44
61703;BMP280;47622;47.726;3.298;2023-10-19T13:43:04;96447.47;;;19.46
61703;BMP280;47622;47.726;3.298;2023-10-19T13:45:32;96442.06;;;19.50
61703;BMP280;47622;47.726;3.298;2023-10-19T13:48:00;96433.84;;;19.57
61703;BMP280;47622;47.726;3.298;2023-10-19T13:50:25;96409.94;;;19.57
61703;BMP280;47622;47.726;3.298;2023-10-19T13:52:55;96412.88;;;19.59
61703;BMP280;47622;47.726;3.298;2023-10-19T13:55:25;96407.28;;;19.57
61703;BMP280;47622;47.726;3.298;2023-10-19T13:57:50;96404.72;;;19.53
61703;BMP280;47622;47.726;3.298;2023-10-19T14:00:18;96403.75;;;19.60
61703;BMP280;47622;47.726;3.298;2023-10-19T14:03:01;96404.47;;;19.60
61703;BMP280;47622;47.726;3.298;2023-10-19T14:05:29;96408.50;;;19.65
61703;BMP280;47622;47.726;3.298;2023-10-19T14:07:55;96386.22;;;19.63
61703;BMP280;47622;47.726;3.298;2023-10-19T14:10:21;96398.03;;;19.49
61703;BMP280;47622;47.726;3.298;2023-10-19T14:12:47;96384.44;;;19.47
61703;BMP280;47622;47.726;3.298;2023-10-19T14:15:15;96380.28;;;19.46
61703;BMP280;47622;47.726;3.298;2023-10-19T14:17:41;96383.44;;;19.32
61703;BMP280;47622;47.726;3.298;2023-10-19T14:20:08;96384.34;;;19.38
61703;BMP280;47622;47.726;3.298;2023-10-19T14:22:45;96371.69;;;19.42
61703;BMP280;47622;47.726;3.298;2023-10-19T14:25:12;96370.53;;;19.43
61703;BMP280;47622;47.726;3.298;2023-10-19T14:27:47;96372.09;;;19.53